createdAt,value
2018-05-14T00:00:21.990Z,99.90
2018-05-14T00:02:49.635Z,99.90
2018-05-14T00:05:17.227Z,99.90
2018-05-14T00:07:44.955Z,99.90
2018-05-14T00:10:12.556Z,99.90
2018-05-14T00:12:40.175Z,99.90
2018-05-14T00:15:07.771Z,99.90
2018-05-14T00:17:35.446Z,99.90
2018-05-14T00:20:03.814Z,99.90
2018-05-14T00:22:31.459Z,99.90
2018-05-14T00:24:59.073Z,99.90
2018-05-14T00:27:26.681Z,99.90
2018-05-14T00:29:54.309Z,99.90
2018-05-14T00:32:21.932Z,99.90
2018-05-14T00:34:50.348Z,99.90
2018-05-14T00:37:18.004Z,99.90
2018-05-14T00:39:45.653Z,99.90
2018-05-14T00:42:13.250Z,99.90
2018-05-14T00:44:40.891Z,99.90
2018-05-14T00:47:08.537Z,99.90
2018-05-14T00:49:36.150Z,99.90
2018-05-14T00:52:03.832Z,99.90
2018-05-14T00:54:31.417Z,99.90
2018-05-14T00:56:59.835Z,99.90
2018-05-14T00:59:27.471Z,99.90
2018-05-14T01:01:55.120Z,99.90
2018-05-14T01:04:23.460Z,99.90
2018-05-14T01:06:51.170Z,99.90
2018-05-14T01:09:18.781Z,99.90
2018-05-14T01:11:46.362Z,99.90
2018-05-14T01:14:14.753Z,99.90
2018-05-14T01:16:43.118Z,99.90
2018-05-14T01:19:10.735Z,99.90
2018-05-14T01:21:38.398Z,99.90
2018-05-14T01:24:06.009Z,99.90
2018-05-14T01:26:34.435Z,99.90
2018-05-14T01:29:02.045Z,99.90
2018-05-14T01:31:29.681Z,99.90
2018-05-14T01:33:57.303Z,99.90
2018-05-14T01:36:25.036Z,99.90
2018-05-14T01:38:53.474Z,99.90
2018-05-14T01:41:21.079Z,99.90
2018-05-14T01:43:48.749Z,99.90
2018-05-14T01:46:17.139Z,99.90
2018-05-14T01:48:44.785Z,99.90
2018-05-14T01:51:12.381Z,99.90
2018-05-14T01:53:40.004Z,99.90
2018-05-14T01:56:08.964Z,99.90
2018-05-14T01:58:36.588Z,99.90
2018-05-14T02:01:04.226Z,99.90
2018-05-14T02:03:31.891Z,99.90
2018-05-14T02:05:59.513Z,99.90
2018-05-14T02:08:27.090Z,99.90
2018-05-14T02:10:54.742Z,99.90
2018-05-14T02:13:22.373Z,99.90
2018-05-14T02:15:49.965Z,99.90
2018-05-14T02:18:17.568Z,99.90
2018-05-14T02:20:45.175Z,99.90
2018-05-14T02:23:12.794Z,99.90
2018-05-14T02:25:41.242Z,99.90
2018-05-14T02:28:08.867Z,99.90
2018-05-14T02:30:36.467Z,99.90
2018-05-14T02:33:04.188Z,99.90
2018-05-14T02:35:31.819Z,99.90
2018-05-14T02:37:59.439Z,99.90
2018-05-14T02:40:28.824Z,99.90
2018-05-14T02:42:56.413Z,99.90
2018-05-14T02:45:24.034Z,99.90
2018-05-14T02:47:51.710Z,99.90
2018-05-14T02:50:19.323Z,99.90
2018-05-14T02:52:46.928Z,99.90
2018-05-14T02:55:14.507Z,99.90
2018-05-14T02:57:42.143Z,99.90
2018-05-14T03:00:09.791Z,99.90
2018-05-14T03:02:37.396Z,99.90
2018-05-14T03:05:05.036Z,99.90
2018-05-14T03:07:32.599Z,99.90
2018-05-14T03:10:00.233Z,99.90
2018-05-14T03:12:27.873Z,99.90
2018-05-14T03:14:56.881Z,99.90
2018-05-14T03:17:24.555Z,99.90
2018-05-14T03:19:52.195Z,99.90
2018-05-14T03:22:19.849Z,99.90
2018-05-14T03:24:47.423Z,99.90
2018-05-14T03:27:15.077Z,99.90
2018-05-14T03:29:42.678Z,99.90
2018-05-14T03:32:10.295Z,99.90
2018-05-14T03:34:38.723Z,99.90
2018-05-14T03:37:06.312Z,99.90
2018-05-14T03:39:34.708Z,99.90
2018-05-14T03:42:02.335Z,99.90
2018-05-14T03:44:29.962Z,99.90
2018-05-14T03:46:57.591Z,99.90
2018-05-14T03:49:25.192Z,99.90
2018-05-14T03:51:52.843Z,99.90
2018-05-14T03:54:20.443Z,99.90
2018-05-14T03:56:48.074Z,99.90
2018-05-14T03:59:27.482Z,99.90
2018-05-14T04:02:16.777Z,99.90
2018-05-14T04:04:56.171Z,99.90
2018-05-14T04:07:24.584Z,99.90
2018-05-14T04:09:52.179Z,99.90
2018-05-14T04:12:19.797Z,99.90
2018-05-14T04:14:48.433Z,99.90
2018-05-14T04:17:16.035Z,99.90
2018-05-14T04:19:43.678Z,99.90
2018-05-14T04:22:12.066Z,99.90
2018-05-14T04:24:39.723Z,99.90
2018-05-14T04:27:08.182Z,99.90
2018-05-14T04:29:36.561Z,99.90
2018-05-14T04:32:04.187Z,99.90
2018-05-14T04:34:31.843Z,99.90
2018-05-14T04:37:01.288Z,99.90
2018-05-14T04:39:29.688Z,99.90
2018-05-14T04:41:58.097Z,99.90
2018-05-14T04:44:25.701Z,99.90
2018-05-14T04:46:53.326Z,99.90
2018-05-14T04:49:20.958Z,99.90
2018-05-14T04:51:48.558Z,99.90
2018-05-14T04:54:16.151Z,99.90
2018-05-14T04:56:43.735Z,99.90
2018-05-14T04:59:11.435Z,99.90
2018-05-14T05:01:39.860Z,99.90
2018-05-14T05:04:07.429Z,99.90
2018-05-14T05:06:35.131Z,99.90
2018-05-14T05:09:02.821Z,99.90
2018-05-14T05:11:30.433Z,99.90
2018-05-14T05:13:58.100Z,99.90
2018-05-14T05:16:25.755Z,99.90
2018-05-14T05:18:53.406Z,99.90
2018-05-14T05:21:21.021Z,99.90
2018-05-14T05:23:48.595Z,99.90
2018-05-14T05:26:16.222Z,99.90
2018-05-14T05:28:43.926Z,99.90
2018-05-14T05:31:12.338Z,99.90
2018-05-14T05:33:40.111Z,99.90
2018-05-14T05:36:07.731Z,99.90
2018-05-14T05:38:35.356Z,99.90
2018-05-14T05:41:03.032Z,99.90
2018-05-14T05:43:30.678Z,99.90
2018-05-14T05:45:58.349Z,99.90
2018-05-14T05:48:25.966Z,99.90
2018-05-14T05:50:54.344Z,99.90
2018-05-14T05:53:21.961Z,99.90
2018-05-14T05:55:49.603Z,99.90
2018-05-14T05:58:17.324Z,99.90
2018-05-14T06:00:44.930Z,99.90
2018-05-14T06:03:12.514Z,99.90
2018-05-14T06:05:40.199Z,99.90
2018-05-14T06:08:07.879Z,99.90
2018-05-14T06:10:36.266Z,99.90
2018-05-14T06:13:04.642Z,99.90
2018-05-14T06:15:33.210Z,99.90
2018-05-14T06:18:00.784Z,99.90
2018-05-14T06:20:29.240Z,99.90
2018-05-14T06:22:56.881Z,99.90
2018-05-14T06:25:24.539Z,99.90
2018-05-14T06:27:52.236Z,99.90
2018-05-14T06:30:19.847Z,99.90
2018-05-14T06:32:48.744Z,99.90
2018-05-14T06:35:16.525Z,99.90
2018-05-14T06:37:44.179Z,99.90
2018-05-14T06:40:11.814Z,99.90
2018-05-14T06:42:39.420Z,99.90
2018-05-14T06:45:07.026Z,99.90
2018-05-14T06:47:35.421Z,99.90
2018-05-14T06:50:03.071Z,99.90
2018-05-14T06:52:30.741Z,99.90
2018-05-14T06:54:58.543Z,99.90
2018-05-14T06:57:26.263Z,99.90
2018-05-14T06:59:53.888Z,99.90
2018-05-14T07:02:21.556Z,99.90
2018-05-14T07:04:49.162Z,99.90
2018-05-14T07:07:16.795Z,99.90
2018-05-14T07:09:45.190Z,99.90
2018-05-14T07:12:12.805Z,99.90
2018-05-14T07:14:40.395Z,99.90
2018-05-14T07:17:08.762Z,99.90
2018-05-14T07:19:36.381Z,99.90
2018-05-14T07:22:04.011Z,99.90
2018-05-14T07:24:31.660Z,99.90
2018-05-14T07:27:00.279Z,99.90
2018-05-14T07:29:28.107Z,99.90
2018-05-14T07:31:56.513Z,99.90
2018-05-14T07:34:24.115Z,99.90
2018-05-14T07:36:51.744Z,99.90
2018-05-14T07:39:19.379Z,99.90
2018-05-14T07:41:47.045Z,99.90
2018-05-14T07:44:14.641Z,99.90
2018-05-14T07:46:42.249Z,99.90
2018-05-14T07:49:10.053Z,99.90
2018-05-14T07:51:37.584Z,99.90
2018-05-14T07:54:05.203Z,99.90
2018-05-14T07:56:32.821Z,99.90
2018-05-14T07:59:00.479Z,99.90
2018-05-14T08:01:28.084Z,99.90
2018-05-14T08:03:55.701Z,99.90
2018-05-14T08:06:23.318Z,99.90
2018-05-14T08:08:50.948Z,99.90
2018-05-14T08:11:18.612Z,99.90
2018-05-14T08:13:46.342Z,99.90
2018-05-14T08:16:13.925Z,99.90
2018-05-14T08:18:41.531Z,99.90
2018-05-14T08:21:09.188Z,99.90
2018-05-14T08:23:36.918Z,99.90
2018-05-14T08:26:04.481Z,99.90
2018-05-14T08:28:32.276Z,99.90
2018-05-14T08:30:59.889Z,99.90
2018-05-14T08:33:27.459Z,99.90
2018-05-14T08:35:55.116Z,99.90
2018-05-14T08:38:22.720Z,99.90
2018-05-14T08:40:50.371Z,99.90
2018-05-14T08:43:17.929Z,99.90
2018-05-14T08:45:45.557Z,99.90
2018-05-14T08:48:13.217Z,99.90
2018-05-14T08:50:40.861Z,99.90
2018-05-14T08:53:08.555Z,99.90
2018-05-14T08:55:36.202Z,99.90
2018-05-14T08:58:03.828Z,99.90
2018-05-14T09:00:31.441Z,99.90
2018-05-14T09:02:59.015Z,99.90
2018-05-14T09:05:26.726Z,99.90
2018-05-14T09:07:55.115Z,99.90
2018-05-14T09:10:23.519Z,99.90
2018-05-14T09:12:51.310Z,99.90
2018-05-14T09:15:19.047Z,99.90
2018-05-14T09:17:46.671Z,99.90
2018-05-14T09:20:15.090Z,99.90
2018-05-14T09:22:42.749Z,99.90
2018-05-14T09:25:10.427Z,99.90
2018-05-14T09:27:38.096Z,99.90
2018-05-14T09:30:05.728Z,99.90
2018-05-14T09:32:33.335Z,99.90
2018-05-14T09:35:01.081Z,99.90
2018-05-14T09:37:28.722Z,99.90
2018-05-14T09:39:56.340Z,99.90
2018-05-14T09:42:23.926Z,99.90
2018-05-14T09:44:51.519Z,99.90
2018-05-14T09:47:19.148Z,99.90
2018-05-14T09:49:46.742Z,99.90
2018-05-14T09:52:14.469Z,99.90
2018-05-14T09:54:42.107Z,99.90
2018-05-14T09:57:10.479Z,99.90
2018-05-14T09:59:38.100Z,99.90
2018-05-14T10:02:05.931Z,99.90
2018-05-14T10:04:33.433Z,99.90
2018-05-14T10:07:01.040Z,99.90
2018-05-14T10:09:29.609Z,99.90
2018-05-14T10:11:57.256Z,99.90
2018-05-14T10:14:24.897Z,99.90
2018-05-14T10:16:52.478Z,99.90
2018-05-14T10:19:20.098Z,99.90
2018-05-14T10:21:47.665Z,99.90
2018-05-14T10:24:15.296Z,99.90
2018-05-14T10:26:42.948Z,99.90
2018-05-14T10:29:10.507Z,99.90
2018-05-14T10:31:38.906Z,99.90
2018-05-14T10:34:07.330Z,99.90
2018-05-14T10:36:35.019Z,99.90
2018-05-14T10:39:02.771Z,99.90
2018-05-14T10:41:30.394Z,99.90
2018-05-14T10:43:58.064Z,99.90
2018-05-14T10:46:25.654Z,99.90
2018-05-14T10:48:53.292Z,99.90
2018-05-14T10:51:20.921Z,99.90
2018-05-14T10:53:49.330Z,99.90
2018-05-14T10:56:16.995Z,99.90
2018-05-14T10:58:44.629Z,99.90
2018-05-14T11:01:12.238Z,99.90
2018-05-14T11:03:39.864Z,99.90
2018-05-14T11:06:07.425Z,99.90
2018-05-14T11:08:35.016Z,99.90
2018-05-14T11:11:02.647Z,99.90
2018-05-14T11:13:30.246Z,99.90
2018-05-14T11:15:58.277Z,99.90
2018-05-14T11:18:25.887Z,99.90
2018-05-14T11:20:53.525Z,99.90
2018-05-14T11:23:21.129Z,99.90
2018-05-14T11:25:48.726Z,99.90
2018-05-14T11:28:16.297Z,99.90
2018-05-14T11:30:43.903Z,99.90
2018-05-14T11:33:11.507Z,99.90
2018-05-14T11:35:39.076Z,99.90
2018-05-14T11:38:06.688Z,99.90
2018-05-14T11:40:34.291Z,99.90
2018-05-14T11:43:01.936Z,99.90
2018-05-14T11:45:29.735Z,99.90
2018-05-14T11:47:57.394Z,99.90
2018-05-14T11:50:25.134Z,99.90
2018-05-14T11:52:52.798Z,99.90
2018-05-14T11:55:20.347Z,99.90
2018-05-14T11:57:48.733Z,99.90
2018-05-14T12:00:16.367Z,99.90
2018-05-14T12:02:44.056Z,99.90
2018-05-14T12:05:11.685Z,99.90
2018-05-14T12:07:39.302Z,99.90
2018-05-14T12:10:07.030Z,99.90
2018-05-14T12:12:34.558Z,99.90
2018-05-14T12:15:02.198Z,99.90
2018-05-14T12:17:29.820Z,99.90
2018-05-14T12:19:58.193Z,99.90
2018-05-14T12:22:26.563Z,99.40
2018-05-14T12:24:54.975Z,99.90
2018-05-14T12:27:22.575Z,99.90
2018-05-14T12:29:50.198Z,99.70
2018-05-14T12:32:17.824Z,99.30
2018-05-14T12:34:46.250Z,99.80
2018-05-14T12:37:13.859Z,99.80
2018-05-14T12:39:41.460Z,98.30
2018-05-14T12:42:09.054Z,97.50
2018-05-14T12:44:36.692Z,98.60
2018-05-14T12:47:04.290Z,96.70
2018-05-14T12:49:31.888Z,95.80
2018-05-14T12:52:00.152Z,96.50
2018-05-14T12:54:28.498Z,97.80
2018-05-14T12:56:56.173Z,97.40
2018-05-14T12:59:24.584Z,96.40
2018-05-14T13:01:52.252Z,96.40
2018-05-14T13:04:19.853Z,96.00
2018-05-14T13:06:47.456Z,95.00
2018-05-14T13:09:15.143Z,95.20
2018-05-14T13:11:42.760Z,94.20
2018-05-14T13:14:10.336Z,94.70
2018-05-14T13:16:38.009Z,94.40
2018-05-14T13:19:05.667Z,93.80
2018-05-14T13:21:33.213Z,94.60
2018-05-14T13:24:01.646Z,94.00
2018-05-14T13:26:29.407Z,93.60
2018-05-14T13:28:57.026Z,91.60
2018-05-14T13:31:25.385Z,88.90
2018-05-14T13:33:53.009Z,88.90
2018-05-14T13:36:20.636Z,86.70
2018-05-14T13:38:49.043Z,88.90
2018-05-14T13:41:16.662Z,88.90
2018-05-14T13:43:45.040Z,87.60
2018-05-14T13:46:12.648Z,87.60
2018-05-14T13:48:40.292Z,85.70
2018-05-14T13:51:07.882Z,86.20
2018-05-14T13:53:35.536Z,87.50
2018-05-14T13:56:03.209Z,85.60
2018-05-14T13:58:30.825Z,85.60
2018-05-14T14:00:59.209Z,86.10
2018-05-14T14:03:26.787Z,85.90
2018-05-14T14:05:54.460Z,85.30
2018-05-14T14:08:22.036Z,84.80
2018-05-14T14:10:49.649Z,83.20
2018-05-14T14:13:18.057Z,83.40
2018-05-14T14:15:45.716Z,83.40
2018-05-14T14:18:13.382Z,83.20
2018-05-14T14:20:41.046Z,83.70
2018-05-14T14:23:08.719Z,83.60
2018-05-14T14:25:36.256Z,83.50
2018-05-14T14:28:03.859Z,81.90
2018-05-14T14:30:31.603Z,82.30
2018-05-14T14:32:59.245Z,81.40
2018-05-14T14:35:26.806Z,81.10
2018-05-14T14:37:54.409Z,80.30
2018-05-14T14:40:23.133Z,79.50
2018-05-14T14:42:50.760Z,80.50
2018-05-14T14:45:18.350Z,80.70
2018-05-14T14:47:45.939Z,79.20
2018-05-14T14:50:13.547Z,80.20
2018-05-14T14:52:41.142Z,78.10
2018-05-14T14:55:08.751Z,78.20
2018-05-14T14:57:37.129Z,76.90
2018-05-14T15:00:04.780Z,77.20
2018-05-14T15:02:32.385Z,78.60
2018-05-14T15:04:59.997Z,78.50
2018-05-14T15:07:27.621Z,78.60
2018-05-14T15:09:55.961Z,77.30
2018-05-14T15:12:23.560Z,77.30
2018-05-14T15:14:51.261Z,76.70
2018-05-14T15:17:18.898Z,77.00
2018-05-14T15:19:46.576Z,77.10
2018-05-14T15:22:14.204Z,78.80
2018-05-14T15:24:41.987Z,78.20
2018-05-14T15:27:09.644Z,79.60
2018-05-14T15:29:37.223Z,80.50
2018-05-14T15:32:04.975Z,77.50
2018-05-14T15:34:32.598Z,77.90
2018-05-14T15:37:00.186Z,78.10
2018-05-14T15:39:27.897Z,77.30
2018-05-14T15:41:55.509Z,79.00
2018-05-14T15:44:23.065Z,80.80
2018-05-14T15:46:50.663Z,79.20
2018-05-14T15:49:18.277Z,77.60
2018-05-14T15:51:45.956Z,77.10
2018-05-14T15:54:13.669Z,78.60
2018-05-14T15:56:41.259Z,79.70
2018-05-14T15:59:10.544Z,78.90
2018-05-14T16:01:38.169Z,78.90
2018-05-14T16:04:05.966Z,79.10
2018-05-14T16:06:33.590Z,77.50
2018-05-14T16:09:01.208Z,78.20
2018-05-14T16:11:28.930Z,77.00
2018-05-14T16:13:56.597Z,76.90
2018-05-14T16:16:24.220Z,77.70
2018-05-14T16:18:51.818Z,76.90
2018-05-14T16:21:19.401Z,78.60
2018-05-14T16:23:47.851Z,77.00
2018-05-14T16:26:15.442Z,77.10
2018-05-14T16:28:43.347Z,77.90
2018-05-14T16:31:11.026Z,78.20
2018-05-14T16:33:38.747Z,78.60
2018-05-14T16:36:07.576Z,79.00
2018-05-14T16:38:35.341Z,78.90
2018-05-14T16:41:02.979Z,79.10
2018-05-14T16:43:30.979Z,79.60
2018-05-14T16:45:58.924Z,81.40
2018-05-14T16:48:26.498Z,81.30
2018-05-14T16:50:54.104Z,81.20
2018-05-14T16:53:21.710Z,81.80
2018-05-14T16:55:49.364Z,82.10
2018-05-14T16:58:16.939Z,82.70
2018-05-14T17:00:44.523Z,83.00
2018-05-14T17:03:12.166Z,83.70
2018-05-14T17:05:39.777Z,82.90
2018-05-14T17:08:07.346Z,83.90
2018-05-14T17:10:35.819Z,85.70
2018-05-14T17:13:05.243Z,85.60
2018-05-14T17:15:34.740Z,87.30
2018-05-14T17:18:04.192Z,85.80
2018-05-14T17:20:32.573Z,83.80
2018-05-14T17:23:00.206Z,83.80
2018-05-14T17:25:27.821Z,81.80
2018-05-14T17:27:55.508Z,81.30
2018-05-14T17:30:24.063Z,79.10
2018-05-14T17:32:51.651Z,79.20
2018-05-14T17:35:20.018Z,81.30
2018-05-14T17:37:47.694Z,81.30
2018-05-14T17:40:16.095Z,84.30
2018-05-14T17:42:43.831Z,84.20
2018-05-14T17:45:12.297Z,87.00
2018-05-14T17:47:39.923Z,87.00
2018-05-14T17:50:07.520Z,87.60
2018-05-14T17:52:35.105Z,88.30
2018-05-14T17:55:02.731Z,88.80
2018-05-14T17:57:30.360Z,89.40
2018-05-14T17:59:57.957Z,89.20
2018-05-14T18:02:25.617Z,87.70
2018-05-14T18:04:53.323Z,87.40
2018-05-14T18:07:21.014Z,88.20
2018-05-14T18:09:48.684Z,88.50
2018-05-14T18:12:16.437Z,89.00
2018-05-14T18:14:44.063Z,90.00
2018-05-14T18:17:12.439Z,90.30
2018-05-14T18:19:45.646Z,90.30
2018-05-14T18:22:19.652Z,90.80
2018-05-14T18:24:51.030Z,91.20
2018-05-14T18:27:24.409Z,91.10
2018-05-14T18:29:54.840Z,91.30
2018-05-14T18:32:22.445Z,91.70
2018-05-14T18:34:55.953Z,91.90
2018-05-14T18:37:23.631Z,92.00
2018-05-14T18:39:51.244Z,91.80
2018-05-14T18:42:19.021Z,91.90
2018-05-14T18:44:46.670Z,91.60
2018-05-14T18:47:14.302Z,92.10
2018-05-14T18:49:41.901Z,91.90
2018-05-14T18:52:09.592Z,92.10
2018-05-14T18:54:37.169Z,92.20
2018-05-14T18:57:05.517Z,91.90
2018-05-14T18:59:33.141Z,91.90
2018-05-14T19:02:00.724Z,92.20
2018-05-14T19:04:28.324Z,92.60
2018-05-14T19:06:56.657Z,93.30
2018-05-14T19:09:24.344Z,92.80
2018-05-14T19:11:52.568Z,92.90
2018-05-14T19:14:20.548Z,92.70
2018-05-14T19:16:53.977Z,92.70
2018-05-14T19:19:22.111Z,92.60
2018-05-14T19:21:49.695Z,92.80
2018-05-14T19:24:17.346Z,93.00
2018-05-14T19:26:44.953Z,93.20
2018-05-14T19:29:18.504Z,92.80
2018-05-14T19:31:46.083Z,92.40
2018-05-14T19:34:19.427Z,92.40
2018-05-14T19:36:47.776Z,92.50
2018-05-14T19:39:21.043Z,92.50
2018-05-14T19:41:48.638Z,92.60
2018-05-14T19:44:16.281Z,92.70
2018-05-14T19:46:43.952Z,93.00
2018-05-14T19:49:11.587Z,93.20
2018-05-14T19:51:39.229Z,93.20
2018-05-14T19:54:06.894Z,93.10
2018-05-14T19:56:34.445Z,93.40
2018-05-14T19:59:02.070Z,93.10
2018-05-14T20:01:29.690Z,93.30
2018-05-14T20:03:57.301Z,93.10
2018-05-14T20:06:24.975Z,93.10
2018-05-14T20:08:53.426Z,93.00
2018-05-14T20:11:21.008Z,93.00
2018-05-14T20:13:49.362Z,93.20
2018-05-14T20:16:17.038Z,93.10
2018-05-14T20:18:45.429Z,93.60
2018-05-14T20:21:13.807Z,93.70
2018-05-14T20:23:42.242Z,94.00
2018-05-14T20:26:09.864Z,94.00
2018-05-14T20:28:38.347Z,93.90
2018-05-14T20:31:06.177Z,93.90
2018-05-14T20:33:34.593Z,94.00
2018-05-14T20:36:02.215Z,94.00
2018-05-14T20:38:29.839Z,93.90
2018-05-14T20:40:57.515Z,93.50
2018-05-14T20:43:25.202Z,93.60
2018-05-14T20:45:52.825Z,93.40
2018-05-14T20:48:20.524Z,93.40
2018-05-14T20:50:48.875Z,92.90
2018-05-14T20:53:16.480Z,92.90
2018-05-14T20:55:44.069Z,92.80
2018-05-14T20:58:12.449Z,92.50
2018-05-14T21:00:40.052Z,92.50
2018-05-14T21:03:07.640Z,92.50
2018-05-14T21:05:35.302Z,92.40
2018-05-14T21:08:02.905Z,92.50
2018-05-14T21:10:31.164Z,92.60
2018-05-14T21:12:59.605Z,92.60
2018-05-14T21:15:27.218Z,92.60
2018-05-14T21:17:54.832Z,92.70
2018-05-14T21:20:22.437Z,92.70
2018-05-14T21:22:50.026Z,92.10
2018-05-14T21:25:18.400Z,92.30
2018-05-14T21:27:45.987Z,92.10
2018-05-14T21:30:13.598Z,92.20
2018-05-14T21:32:41.196Z,92.30
2018-05-14T21:35:08.768Z,92.50
2018-05-14T21:37:36.370Z,92.60
2018-05-14T21:40:03.928Z,92.50
2018-05-14T21:42:32.324Z,92.80
2018-05-14T21:44:59.889Z,92.70
2018-05-14T21:47:27.478Z,93.00
2018-05-14T21:49:55.073Z,93.20
2018-05-14T21:52:23.468Z,93.40
2018-05-14T21:54:51.862Z,93.70
2018-05-14T21:57:19.486Z,93.70
2018-05-14T21:59:47.098Z,93.80
2018-05-14T22:02:14.714Z,93.90
2018-05-14T22:04:43.100Z,94.00
2018-05-14T22:07:10.740Z,94.00
2018-05-14T22:09:38.398Z,93.70
2018-05-14T22:12:06.062Z,94.00
2018-05-14T22:14:33.673Z,93.90
2018-05-14T22:17:01.371Z,93.90
2018-05-14T22:19:29.006Z,93.60
2018-05-14T22:21:56.618Z,93.50
2018-05-14T22:24:24.233Z,93.60
2018-05-14T22:26:51.888Z,93.80
2018-05-14T22:29:19.455Z,93.90
2018-05-14T22:31:47.028Z,94.00
2018-05-14T22:34:14.612Z,93.90
2018-05-14T22:36:42.169Z,93.80
2018-05-14T22:39:10.544Z,93.90
2018-05-14T22:41:38.201Z,94.30
2018-05-14T22:44:05.781Z,93.70
2018-05-14T22:46:33.353Z,94.00
2018-05-14T22:49:01.072Z,93.90
2018-05-14T22:51:28.678Z,93.80
2018-05-14T22:53:56.252Z,94.00
2018-05-14T22:56:24.602Z,94.20
2018-05-14T22:58:52.175Z,94.20
2018-05-14T23:01:19.765Z,94.30
2018-05-14T23:03:47.341Z,94.60
2018-05-14T23:06:14.931Z,94.80
2018-05-14T23:08:42.719Z,95.00
2018-05-14T23:11:10.272Z,95.20
2018-05-14T23:13:37.838Z,95.40
2018-05-14T23:16:05.430Z,95.60
2018-05-14T23:18:33.765Z,96.30
2018-05-14T23:21:01.350Z,96.20
2018-05-14T23:23:29.664Z,96.60
2018-05-14T23:25:57.246Z,96.50
2018-05-14T23:28:24.889Z,96.50
2018-05-14T23:30:52.468Z,96.80
2018-05-14T23:33:20.071Z,97.10
2018-05-14T23:35:48.427Z,97.10
2018-05-14T23:38:16.033Z,97.10
2018-05-14T23:40:43.646Z,96.70
2018-05-14T23:43:12.007Z,96.60
2018-05-14T23:45:39.653Z,96.60
2018-05-14T23:48:07.213Z,96.30
2018-05-14T23:50:34.791Z,96.50
2018-05-14T23:53:02.374Z,96.60
2018-05-14T23:55:29.934Z,96.50
2018-05-14T23:57:57.517Z,97.00
